AFR1263 ESSA-LFPG
Flight info
| Callsign | AFR1263 |
|---|---|
| Flight time | 2h 17m |
| Altitude | 36000 |
| Route | NOSLI N850 ABAMA DCT 570024N0141423E 560103N0125932E 551223N0115938E DCT GIMRU DCT MICOS DCT 530040N0092427E 520044N0081420E 505444N0065953E DCT IDOSA UN857 TOLVU DCT RAPOR DCT VEDUS |
| Aircraft | A319/M-SDE3FGHIRWY/LB1 |
Departure
| Time | 2026-05-06 14:28 |
|---|---|
| Airport | Stockholm-Arlanda Airport (ESSA) |
Arrival
| Time | 2026-05-06 16:45 |
|---|---|
| Airport | Charles de Gaulle International Airport (LFPG) |
| Time | Latitude | Longitude | Altitude | Speed | Heading |
|---|---|---|---|---|---|
| 2026-05-06 13:50 | 59.64342 | 17.92873 | 146 ft | 0 kts | 36° |
| 2026-05-06 14:15 | 59.64341 | 17.92871 | 146 ft | 1 kts | 36° |
| 2026-05-06 14:15 | 59.64329 | 17.92854 | 146 ft | 2 kts | 36° |
| 2026-05-06 14:15 | 59.64317 | 17.92837 | 146 ft | 2 kts | 36° |
| 2026-05-06 14:16 | 59.64304 | 17.92820 | 146 ft | 2 kts | 36° |
| 2026-05-06 14:16 | 59.64292 | 17.92802 | 146 ft | 2 kts | 36° |
| 2026-05-06 14:16 | 59.64280 | 17.92785 | 146 ft | 2 kts | 36° |
| 2026-05-06 14:16 | 59.64268 | 17.92768 | 146 ft | 2 kts | 36° |
| 2026-05-06 14:17 | 59.64256 | 17.92752 | 146 ft | 1 kts | 36° |
| 2026-05-06 14:17 | 59.64247 | 17.92740 | 146 ft | 2 kts | 13° |
| 2026-05-06 14:17 | 59.64233 | 17.92741 | 146 ft | 2 kts | 339° |
| 2026-05-06 14:17 | 59.64221 | 17.92758 | 146 ft | 1 kts | 304° |
| 2026-05-06 14:18 | 59.64218 | 17.92769 | 146 ft | 1 kts | 293° |
| 2026-05-06 14:18 | 59.64217 | 17.92775 | 146 ft | 0 kts | 296° |
| 2026-05-06 14:18 | 59.64217 | 17.92774 | 146 ft | 0 kts | 296° |
| 2026-05-06 14:21 | 59.64220 | 17.92760 | 146 ft | 4 kts | 297° |
| 2026-05-06 14:21 | 59.64251 | 17.92643 | 146 ft | 13 kts | 298° |
| 2026-05-06 14:22 | 59.64295 | 17.92478 | 146 ft | 14 kts | 297° |
| 2026-05-06 14:22 | 59.64341 | 17.92300 | 146 ft | 14 kts | 296° |
| 2026-05-06 14:22 | 59.64390 | 17.92118 | 146 ft | 15 kts | 297° |
| 2026-05-06 14:22 | 59.64455 | 17.91951 | 146 ft | 15 kts | 344° |
| 2026-05-06 14:23 | 59.64563 | 17.91992 | 146 ft | 16 kts | 12° |
| 2026-05-06 14:23 | 59.64676 | 17.92030 | 146 ft | 17 kts | 10° |
| 2026-05-06 14:23 | 59.64814 | 17.92077 | 146 ft | 22 kts | 9° |
| 2026-05-06 14:23 | 59.64975 | 17.92137 | 146 ft | 23 kts | 10° |
| 2026-05-06 14:24 | 59.65139 | 17.92197 | 146 ft | 23 kts | 10° |
| 2026-05-06 14:24 | 59.65295 | 17.92256 | 146 ft | 23 kts | 10° |
| 2026-05-06 14:24 | 59.65452 | 17.92310 | 146 ft | 22 kts | 10° |
| 2026-05-06 14:24 | 59.65607 | 17.92365 | 146 ft | 22 kts | 9° |
| 2026-05-06 14:25 | 59.65758 | 17.92417 | 146 ft | 22 kts | 11° |
| 2026-05-06 14:25 | 59.65910 | 17.92475 | 146 ft | 21 kts | 11° |
| 2026-05-06 14:25 | 59.66058 | 17.92529 | 146 ft | 21 kts | 11° |
| 2026-05-06 14:25 | 59.66206 | 17.92584 | 146 ft | 21 kts | 10° |
| 2026-05-06 14:26 | 59.66352 | 17.92637 | 146 ft | 21 kts | 11° |
| 2026-05-06 14:26 | 59.66498 | 17.92634 | 146 ft | 21 kts | 337° |
| 2026-05-06 14:26 | 59.66617 | 17.92495 | 146 ft | 20 kts | 283° |
| 2026-05-06 14:26 | 59.66564 | 17.92351 | 147 ft | 4 kts | 190° |
| 2026-05-06 14:27 | 59.66563 | 17.92351 | 146 ft | 0 kts | 191° |
| 2026-05-06 14:27 | 59.66391 | 17.92284 | 147 ft | 61 kts | 190° |
| 2026-05-06 14:27 | 59.65741 | 17.92047 | 147 ft | 126 kts | 190° |
| 2026-05-06 14:28 | 59.64741 | 17.91704 | 344 ft | 158 kts | 189° |
| 2026-05-06 14:28 | 59.63670 | 17.91358 | 1015 ft | 156 kts | 189° |
| 2026-05-06 14:28 | 59.62634 | 17.90969 | 1714 ft | 154 kts | 190° |
| 2026-05-06 14:28 | 59.61620 | 17.90447 | 2349 ft | 154 kts | 205° |
| 2026-05-06 14:29 | 59.60870 | 17.88963 | 2908 ft | 158 kts | 235° |
| 2026-05-06 14:29 | 59.60319 | 17.87079 | 3462 ft | 163 kts | 238° |
| 2026-05-06 14:29 | 59.59734 | 17.85066 | 3848 ft | 179 kts | 237° |
| 2026-05-06 14:29 | 59.59055 | 17.82890 | 4255 ft | 195 kts | 237° |
| 2026-05-06 14:30 | 59.58353 | 17.80455 | 4606 ft | 217 kts | 242° |
| 2026-05-06 14:30 | 59.57641 | 17.77686 | 5061 ft | 236 kts | 243° |
| 2026-05-06 14:30 | 59.56785 | 17.74811 | 5545 ft | 254 kts | 230° |
| 2026-05-06 14:30 | 59.55380 | 17.72556 | 6156 ft | 267 kts | 209° |
| 2026-05-06 14:31 | 59.53732 | 17.70912 | 7041 ft | 269 kts | 207° |
| 2026-05-06 14:31 | 59.52070 | 17.69303 | 7892 ft | 272 kts | 207° |
| 2026-05-06 14:31 | 59.50363 | 17.67649 | 8750 ft | 275 kts | 208° |
| 2026-05-06 14:31 | 59.48663 | 17.65995 | 9564 ft | 279 kts | 208° |
| 2026-05-06 14:32 | 59.46893 | 17.64265 | 10332 ft | 284 kts | 209° |
| 2026-05-06 14:32 | 59.45099 | 17.62507 | 10841 ft | 297 kts | 209° |
| 2026-05-06 14:32 | 59.43216 | 17.60661 | 11279 ft | 312 kts | 210° |
| 2026-05-06 14:32 | 59.41254 | 17.58740 | 11757 ft | 324 kts | 210° |
| 2026-05-06 14:33 | 59.39224 | 17.56758 | 12516 ft | 326 kts | 210° |
| 2026-05-06 14:33 | 59.37185 | 17.54778 | 13243 ft | 329 kts | 211° |
| 2026-05-06 14:33 | 59.35164 | 17.52814 | 13930 ft | 329 kts | 211° |
| 2026-05-06 14:33 | 59.33088 | 17.50792 | 14602 ft | 333 kts | 211° |
| 2026-05-06 14:34 | 59.31018 | 17.48772 | 15292 ft | 334 kts | 211° |
| 2026-05-06 14:34 | 59.28970 | 17.46776 | 15994 ft | 335 kts | 211° |
| 2026-05-06 14:34 | 59.26865 | 17.44724 | 16681 ft | 337 kts | 212° |
| 2026-05-06 14:34 | 59.24785 | 17.42700 | 17370 ft | 338 kts | 211° |
| 2026-05-06 14:35 | 59.22666 | 17.40644 | 18031 ft | 340 kts | 211° |
| 2026-05-06 14:35 | 59.20541 | 17.38588 | 18643 ft | 342 kts | 211° |
| 2026-05-06 14:35 | 59.18431 | 17.36550 | 19254 ft | 343 kts | 211° |
| 2026-05-06 14:35 | 59.16282 | 17.34484 | 19848 ft | 344 kts | 211° |
| 2026-05-06 14:36 | 59.14146 | 17.32427 | 20396 ft | 346 kts | 211° |
| 2026-05-06 14:36 | 59.11993 | 17.30357 | 20951 ft | 348 kts | 211° |
| 2026-05-06 14:36 | 59.09816 | 17.28250 | 21511 ft | 348 kts | 213° |
| 2026-05-06 14:36 | 59.07741 | 17.25912 | 21927 ft | 350 kts | 217° |
| 2026-05-06 14:37 | 59.05718 | 17.23188 | 22408 ft | 351 kts | 221° |
| 2026-05-06 14:37 | 59.03836 | 17.20246 | 22914 ft | 351 kts | 223° |
| 2026-05-06 14:37 | 59.01972 | 17.17253 | 23417 ft | 351 kts | 223° |
| 2026-05-06 14:37 | 59.00109 | 17.14260 | 23902 ft | 351 kts | 223° |
| 2026-05-06 14:38 | 58.98211 | 17.11205 | 24364 ft | 353 kts | 223° |
| 2026-05-06 14:38 | 58.96325 | 17.08173 | 24795 ft | 356 kts | 223° |
| 2026-05-06 14:38 | 58.94442 | 17.05149 | 25219 ft | 357 kts | 223° |
| 2026-05-06 14:38 | 58.92512 | 17.02051 | 25604 ft | 361 kts | 223° |
| 2026-05-06 14:39 | 58.90574 | 16.98950 | 26013 ft | 363 kts | 223° |
| 2026-05-06 14:39 | 58.88634 | 16.95852 | 26460 ft | 364 kts | 222° |
| 2026-05-06 14:39 | 58.86699 | 16.92764 | 26874 ft | 365 kts | 222° |
| 2026-05-06 14:39 | 58.84726 | 16.89615 | 27309 ft | 367 kts | 222° |
| 2026-05-06 14:40 | 58.82761 | 16.86491 | 27714 ft | 368 kts | 221° |
| 2026-05-06 14:40 | 58.80795 | 16.83374 | 28086 ft | 370 kts | 221° |
| 2026-05-06 14:40 | 58.78812 | 16.80231 | 28466 ft | 372 kts | 221° |
| 2026-05-06 14:40 | 58.76796 | 16.77047 | 28832 ft | 373 kts | 221° |
| 2026-05-06 14:41 | 58.74809 | 16.73896 | 29166 ft | 375 kts | 220° |
| 2026-05-06 14:41 | 58.72801 | 16.70734 | 29530 ft | 376 kts | 220° |
| 2026-05-06 14:41 | 58.70784 | 16.67563 | 29896 ft | 377 kts | 221° |
| 2026-05-06 14:41 | 58.68740 | 16.64339 | 30292 ft | 377 kts | 220° |
| 2026-05-06 14:42 | 58.66725 | 16.61165 | 30713 ft | 376 kts | 220° |
| 2026-05-06 14:42 | 58.64727 | 16.58034 | 31191 ft | 373 kts | 220° |
| 2026-05-06 14:42 | 58.62709 | 16.54887 | 31578 ft | 373 kts | 220° |
| 2026-05-06 14:42 | 58.60728 | 16.51783 | 31932 ft | 373 kts | 220° |
| 2026-05-06 14:43 | 58.58727 | 16.48663 | 32285 ft | 372 kts | 219° |
| 2026-05-06 14:43 | 58.56713 | 16.45525 | 32653 ft | 371 kts | 219° |
| 2026-05-06 14:43 | 58.54727 | 16.42432 | 33024 ft | 370 kts | 219° |
| 2026-05-06 14:43 | 58.52726 | 16.39323 | 33340 ft | 370 kts | 219° |
| 2026-05-06 14:44 | 58.50753 | 16.36261 | 33637 ft | 370 kts | 219° |
| 2026-05-06 14:44 | 58.48745 | 16.33154 | 33993 ft | 369 kts | 219° |
| 2026-05-06 14:44 | 58.46782 | 16.30120 | 34313 ft | 368 kts | 219° |
| 2026-05-06 14:45 | 58.42789 | 16.23950 | 34800 ft | 370 kts | 218° |
| 2026-05-06 14:45 | 58.40813 | 16.20903 | 35005 ft | 371 kts | 218° |
| 2026-05-06 14:45 | 58.38793 | 16.17794 | 35158 ft | 372 kts | 219° |
| 2026-05-06 14:45 | 58.36801 | 16.14737 | 35271 ft | 373 kts | 218° |
| 2026-05-06 14:46 | 58.34774 | 16.11625 | 35370 ft | 374 kts | 218° |
| 2026-05-06 14:46 | 58.30730 | 16.05439 | 35507 ft | 378 kts | 219° |
| 2026-05-06 14:47 | 58.26613 | 15.99156 | 35687 ft | 380 kts | 219° |
| 2026-05-06 14:47 | 58.22501 | 15.92898 | 35844 ft | 382 kts | 219° |
| 2026-05-06 14:48 | 58.18337 | 15.86580 | 35918 ft | 386 kts | 219° |
| 2026-05-06 14:48 | 58.14154 | 15.80255 | 35934 ft | 387 kts | 219° |
| 2026-05-06 14:49 | 58.09967 | 15.73946 | 35928 ft | 387 kts | 219° |
| 2026-05-06 14:49 | 58.05754 | 15.67619 | 35934 ft | 388 kts | 219° |
| 2026-05-06 14:50 | 58.01541 | 15.61312 | 35938 ft | 388 kts | 219° |
| 2026-05-06 14:50 | 57.97319 | 15.55073 | 35934 ft | 389 kts | 218° |
| 2026-05-06 14:51 | 57.92985 | 15.49028 | 35926 ft | 389 kts | 217° |
| 2026-05-06 14:51 | 57.88634 | 15.42995 | 35924 ft | 389 kts | 217° |
| 2026-05-06 14:52 | 57.84287 | 15.36962 | 35922 ft | 390 kts | 217° |
| 2026-05-06 14:52 | 57.79939 | 15.30947 | 35917 ft | 390 kts | 217° |
| 2026-05-06 14:53 | 57.75606 | 15.24961 | 35904 ft | 390 kts | 216° |
| 2026-05-06 14:53 | 57.71233 | 15.18940 | 35901 ft | 392 kts | 217° |
| 2026-05-06 14:54 | 57.66851 | 15.12919 | 35898 ft | 393 kts | 217° |
| 2026-05-06 14:54 | 57.62462 | 15.06917 | 35894 ft | 393 kts | 216° |
| 2026-05-06 14:55 | 57.58080 | 15.00949 | 35891 ft | 393 kts | 216° |
| 2026-05-06 14:55 | 57.53695 | 14.94988 | 35890 ft | 393 kts | 216° |
| 2026-05-06 14:56 | 57.49281 | 14.88998 | 35890 ft | 393 kts | 216° |
| 2026-05-06 14:56 | 57.44882 | 14.83046 | 35892 ft | 394 kts | 216° |
| 2026-05-06 14:57 | 57.40436 | 14.77055 | 35891 ft | 394 kts | 216° |
| 2026-05-06 14:57 | 57.36000 | 14.71094 | 35892 ft | 395 kts | 216° |
| 2026-05-06 14:58 | 57.31588 | 14.65182 | 35893 ft | 396 kts | 216° |
| 2026-05-06 14:58 | 57.27122 | 14.59225 | 35892 ft | 396 kts | 216° |
| 2026-05-06 14:59 | 57.22654 | 14.53278 | 35897 ft | 397 kts | 216° |
| 2026-05-06 14:59 | 57.18204 | 14.47372 | 35892 ft | 397 kts | 216° |
| 2026-05-06 15:00 | 57.13735 | 14.41458 | 35890 ft | 397 kts | 216° |
| 2026-05-06 15:00 | 57.09285 | 14.35584 | 35891 ft | 397 kts | 216° |
| 2026-05-06 15:01 | 57.04814 | 14.29697 | 35888 ft | 397 kts | 215° |
| 2026-05-06 15:01 | 57.00327 | 14.23809 | 35891 ft | 398 kts | 215° |
| 2026-05-06 15:02 | 56.95829 | 14.17927 | 35887 ft | 398 kts | 215° |
| 2026-05-06 15:02 | 56.91361 | 14.12090 | 35889 ft | 398 kts | 215° |
| 2026-05-06 15:03 | 56.86842 | 14.06199 | 35892 ft | 398 kts | 215° |
| 2026-05-06 15:03 | 56.82344 | 14.00351 | 35895 ft | 398 kts | 215° |
| 2026-05-06 15:04 | 56.77844 | 13.94520 | 35896 ft | 398 kts | 215° |
| 2026-05-06 15:04 | 56.73352 | 13.88714 | 35892 ft | 399 kts | 215° |
| 2026-05-06 15:05 | 56.68829 | 13.82884 | 35897 ft | 399 kts | 215° |
| 2026-05-06 15:05 | 56.64309 | 13.77078 | 35898 ft | 400 kts | 215° |
| 2026-05-06 15:06 | 56.59781 | 13.71284 | 35897 ft | 400 kts | 215° |
| 2026-05-06 15:06 | 56.55230 | 13.65480 | 35900 ft | 401 kts | 215° |
| 2026-05-06 15:07 | 56.50681 | 13.59687 | 35900 ft | 401 kts | 216° |
| 2026-05-06 15:07 | 56.46108 | 13.53877 | 35901 ft | 402 kts | 215° |
| 2026-05-06 15:08 | 56.41534 | 13.48091 | 35891 ft | 403 kts | 215° |
| 2026-05-06 15:08 | 56.36960 | 13.42322 | 36094 ft | 405 kts | 215° |
| 2026-05-06 15:09 | 56.32344 | 13.36518 | 35960 ft | 403 kts | 215° |
| 2026-05-06 15:09 | 56.27752 | 13.30763 | 35928 ft | 404 kts | 214° |
| 2026-05-06 15:10 | 56.23124 | 13.24971 | 35723 ft | 406 kts | 214° |
| 2026-05-06 15:10 | 56.18515 | 13.19225 | 35837 ft | 408 kts | 214° |
| 2026-05-06 15:11 | 56.13857 | 13.13441 | 35885 ft | 408 kts | 214° |
| 2026-05-06 15:11 | 56.09191 | 13.07659 | 35906 ft | 408 kts | 214° |
| 2026-05-06 15:12 | 56.04559 | 13.01937 | 35915 ft | 408 kts | 214° |
| 2026-05-06 15:12 | 55.99883 | 12.96155 | 35915 ft | 408 kts | 215° |
| 2026-05-06 15:13 | 55.95229 | 12.90328 | 36160 ft | 408 kts | 215° |
| 2026-05-06 15:13 | 55.92919 | 12.87439 | 36042 ft | 407 kts | 215° |
| 2026-05-06 15:13 | 55.90596 | 12.84534 | 35982 ft | 407 kts | 215° |
| 2026-05-06 15:14 | 55.85979 | 12.78774 | 35927 ft | 408 kts | 215° |
| 2026-05-06 15:14 | 55.81315 | 12.72978 | 35905 ft | 409 kts | 215° |
| 2026-05-06 15:15 | 55.76657 | 12.67211 | 35902 ft | 409 kts | 215° |
| 2026-05-06 15:15 | 55.71970 | 12.61422 | 35905 ft | 410 kts | 215° |
| 2026-05-06 15:16 | 55.67285 | 12.55654 | 35906 ft | 410 kts | 215° |
| 2026-05-06 15:16 | 55.62617 | 12.49927 | 35908 ft | 410 kts | 215° |
| 2026-05-06 15:17 | 55.57952 | 12.44216 | 35908 ft | 410 kts | 215° |
| 2026-05-06 15:17 | 55.53268 | 12.38499 | 35906 ft | 410 kts | 215° |
| 2026-05-06 15:18 | 55.48565 | 12.32772 | 35901 ft | 411 kts | 214° |
| 2026-05-06 15:18 | 55.43864 | 12.27064 | 35900 ft | 412 kts | 214° |
| 2026-05-06 15:19 | 55.39167 | 12.21379 | 35898 ft | 412 kts | 214° |
| 2026-05-06 15:19 | 55.34443 | 12.15679 | 35896 ft | 412 kts | 214° |
| 2026-05-06 15:20 | 55.29715 | 12.09996 | 35894 ft | 412 kts | 214° |
| 2026-05-06 15:20 | 55.25008 | 12.04352 | 35892 ft | 412 kts | 214° |
| 2026-05-06 15:21 | 55.20281 | 11.98728 | 35890 ft | 413 kts | 213° |
| 2026-05-06 15:21 | 55.15410 | 11.93507 | 35891 ft | 413 kts | 211° |
| 2026-05-06 15:22 | 55.10491 | 11.88271 | 35892 ft | 413 kts | 211° |
| 2026-05-06 15:22 | 55.05590 | 11.83077 | 35892 ft | 414 kts | 211° |
| 2026-05-06 15:23 | 55.00668 | 11.77878 | 35893 ft | 414 kts | 211° |
| 2026-05-06 15:23 | 54.95752 | 11.72708 | 35894 ft | 414 kts | 211° |
| 2026-05-06 15:24 | 54.90842 | 11.67553 | 35890 ft | 414 kts | 211° |
| 2026-05-06 15:24 | 54.85919 | 11.62399 | 35881 ft | 414 kts | 211° |
| 2026-05-06 15:25 | 54.80998 | 11.57262 | 35878 ft | 415 kts | 212° |
| 2026-05-06 15:25 | 54.76056 | 11.52117 | 35885 ft | 416 kts | 211° |
| 2026-05-06 15:26 | 54.71117 | 11.46993 | 35871 ft | 416 kts | 211° |
| 2026-05-06 15:26 | 54.66166 | 11.41867 | 35883 ft | 416 kts | 212° |
| 2026-05-06 15:27 | 54.61180 | 11.36722 | 35882 ft | 416 kts | 212° |
| 2026-05-06 15:27 | 54.56248 | 11.31577 | 35881 ft | 416 kts | 213° |
| 2026-05-06 15:28 | 54.51485 | 11.25861 | 35877 ft | 416 kts | 215° |
| 2026-05-06 15:28 | 54.46754 | 11.20123 | 35883 ft | 416 kts | 215° |
| 2026-05-06 15:29 | 54.42036 | 11.14404 | 35871 ft | 417 kts | 215° |
| 2026-05-06 15:29 | 54.37301 | 11.08676 | 35866 ft | 417 kts | 215° |
| 2026-05-06 15:30 | 54.32565 | 11.02969 | 35861 ft | 418 kts | 215° |
| 2026-05-06 15:30 | 54.27827 | 10.97139 | 35869 ft | 418 kts | 217° |
| 2026-05-06 15:31 | 54.23186 | 10.91190 | 35858 ft | 418 kts | 217° |
| 2026-05-06 15:31 | 54.18550 | 10.85270 | 35860 ft | 418 kts | 217° |
| 2026-05-06 15:32 | 54.11588 | 10.76441 | 35859 ft | 418 kts | 217° |
| 2026-05-06 15:32 | 54.06907 | 10.70528 | 35855 ft | 419 kts | 217° |
| 2026-05-06 15:33 | 54.02230 | 10.64638 | 35858 ft | 420 kts | 217° |
| 2026-05-06 15:33 | 53.97531 | 10.58744 | 35844 ft | 421 kts | 217° |
| 2026-05-06 15:34 | 53.92834 | 10.52871 | 35849 ft | 420 kts | 217° |
| 2026-05-06 15:34 | 53.88147 | 10.47027 | 35864 ft | 420 kts | 217° |
| 2026-05-06 15:35 | 53.83421 | 10.41148 | 35842 ft | 419 kts | 217° |
| 2026-05-06 15:35 | 53.78708 | 10.35298 | 35849 ft | 420 kts | 217° |
| 2026-05-06 15:36 | 53.73974 | 10.29439 | 35844 ft | 420 kts | 216° |
| 2026-05-06 15:36 | 53.69260 | 10.23621 | 35847 ft | 421 kts | 216° |
| 2026-05-06 15:37 | 53.64566 | 10.17847 | 35849 ft | 421 kts | 216° |
| 2026-05-06 15:37 | 53.59822 | 10.12029 | 35846 ft | 421 kts | 216° |
| 2026-05-06 15:38 | 53.55092 | 10.06246 | 35852 ft | 421 kts | 216° |
| 2026-05-06 15:38 | 53.50375 | 10.00492 | 35860 ft | 421 kts | 216° |
| 2026-05-06 15:39 | 53.45619 | 9.94706 | 35852 ft | 422 kts | 216° |
| 2026-05-06 15:39 | 53.40883 | 9.88962 | 35856 ft | 421 kts | 216° |
| 2026-05-06 15:40 | 53.36133 | 9.83218 | 35849 ft | 421 kts | 217° |
| 2026-05-06 15:40 | 53.31383 | 9.77488 | 35828 ft | 421 kts | 217° |
| 2026-05-06 15:41 | 53.26626 | 9.71764 | 35841 ft | 422 kts | 217° |
| 2026-05-06 15:41 | 53.21862 | 9.66048 | 35832 ft | 422 kts | 217° |
| 2026-05-06 15:42 | 53.17112 | 9.60364 | 35828 ft | 423 kts | 217° |
| 2026-05-06 15:42 | 53.12346 | 9.54678 | 35839 ft | 422 kts | 217° |
| 2026-05-06 15:43 | 53.07574 | 9.48998 | 35808 ft | 422 kts | 217° |
| 2026-05-06 15:43 | 53.02812 | 9.43347 | 35838 ft | 422 kts | 217° |
| 2026-05-06 15:44 | 52.98018 | 9.37658 | 35831 ft | 422 kts | 217° |
| 2026-05-06 15:44 | 52.93273 | 9.31972 | 35819 ft | 423 kts | 216° |
| 2026-05-06 15:45 | 52.88484 | 9.26246 | 35817 ft | 422 kts | 216° |
| 2026-05-06 15:45 | 52.83740 | 9.20594 | 35829 ft | 423 kts | 216° |
| 2026-05-06 15:46 | 52.78955 | 9.14914 | 35820 ft | 423 kts | 216° |
| 2026-05-06 15:46 | 52.74175 | 9.09251 | 35827 ft | 423 kts | 216° |
| 2026-05-06 15:47 | 52.69407 | 9.03619 | 35837 ft | 422 kts | 216° |
| 2026-05-06 15:47 | 52.64615 | 8.97977 | 35834 ft | 422 kts | 216° |
| 2026-05-06 15:48 | 52.59836 | 8.92367 | 35826 ft | 423 kts | 216° |
| 2026-05-06 15:48 | 52.55054 | 8.86769 | 35834 ft | 422 kts | 216° |
| 2026-05-06 15:49 | 52.50280 | 8.81191 | 35834 ft | 422 kts | 216° |
| 2026-05-06 15:49 | 52.45500 | 8.75620 | 35830 ft | 423 kts | 216° |
| 2026-05-06 15:50 | 52.40694 | 8.70035 | 35821 ft | 423 kts | 216° |
| 2026-05-06 15:50 | 52.35899 | 8.64477 | 35821 ft | 423 kts | 216° |
| 2026-05-06 15:51 | 52.31112 | 8.58946 | 35817 ft | 423 kts | 216° |
| 2026-05-06 15:51 | 52.26288 | 8.53387 | 35818 ft | 423 kts | 216° |
| 2026-05-06 15:52 | 52.21486 | 8.47865 | 35809 ft | 423 kts | 216° |
| 2026-05-06 15:52 | 52.16680 | 8.42354 | 35803 ft | 423 kts | 216° |
| 2026-05-06 15:53 | 52.11884 | 8.36871 | 35809 ft | 422 kts | 216° |
| 2026-05-06 15:53 | 52.07057 | 8.31370 | 35810 ft | 424 kts | 215° |
| 2026-05-06 15:54 | 52.02241 | 8.25897 | 35809 ft | 424 kts | 215° |
| 2026-05-06 15:54 | 51.97434 | 8.20387 | 35818 ft | 423 kts | 216° |
| 2026-05-06 15:55 | 51.92648 | 8.14785 | 35825 ft | 424 kts | 216° |
| 2026-05-06 15:55 | 51.87887 | 8.09228 | 35838 ft | 424 kts | 216° |
| 2026-05-06 15:56 | 51.83105 | 8.03671 | 35839 ft | 423 kts | 216° |
| 2026-05-06 15:56 | 51.78315 | 7.98119 | 35829 ft | 423 kts | 216° |
| 2026-05-06 15:57 | 51.73512 | 7.92565 | 35834 ft | 423 kts | 216° |
| 2026-05-06 15:57 | 51.68752 | 7.87075 | 35833 ft | 423 kts | 216° |
| 2026-05-06 15:58 | 51.63966 | 7.81573 | 35829 ft | 423 kts | 216° |
| 2026-05-06 15:58 | 51.59189 | 7.76095 | 35830 ft | 423 kts | 216° |
| 2026-05-06 15:59 | 51.54378 | 7.70592 | 35824 ft | 423 kts | 216° |
| 2026-05-06 15:59 | 51.49596 | 7.65138 | 35832 ft | 423 kts | 216° |
| 2026-05-06 16:00 | 51.44807 | 7.59689 | 35829 ft | 423 kts | 216° |
| 2026-05-06 16:00 | 51.40003 | 7.54239 | 35829 ft | 423 kts | 216° |
| 2026-05-06 16:01 | 51.35210 | 7.48818 | 35829 ft | 424 kts | 216° |
| 2026-05-06 16:01 | 51.30407 | 7.43399 | 35827 ft | 424 kts | 216° |
| 2026-05-06 16:02 | 51.25589 | 7.37973 | 35823 ft | 424 kts | 216° |
| 2026-05-06 16:02 | 51.20781 | 7.32576 | 35821 ft | 424 kts | 215° |
| 2026-05-06 16:03 | 51.15933 | 7.27148 | 35821 ft | 424 kts | 215° |
| 2026-05-06 16:03 | 51.11111 | 7.21762 | 35818 ft | 424 kts | 215° |
| 2026-05-06 16:04 | 51.06287 | 7.16386 | 35819 ft | 424 kts | 215° |
| 2026-05-06 16:04 | 51.01450 | 7.11013 | 35826 ft | 425 kts | 215° |
| 2026-05-06 16:05 | 50.96629 | 7.05674 | 35833 ft | 425 kts | 215° |
| 2026-05-06 16:05 | 50.91771 | 7.00303 | 35835 ft | 425 kts | 215° |
| 2026-05-06 16:06 | 50.86827 | 6.95226 | 35836 ft | 425 kts | 212° |
| 2026-05-06 16:06 | 50.81813 | 6.90276 | 35836 ft | 425 kts | 212° |
| 2026-05-06 16:07 | 50.76877 | 6.85413 | 35836 ft | 424 kts | 212° |
| 2026-05-06 16:07 | 50.71876 | 6.80499 | 35834 ft | 424 kts | 212° |
| 2026-05-06 16:08 | 50.66873 | 6.75600 | 35830 ft | 424 kts | 212° |
| 2026-05-06 16:08 | 50.61862 | 6.70706 | 35830 ft | 425 kts | 212° |
| 2026-05-06 16:09 | 50.56823 | 6.65798 | 35823 ft | 425 kts | 212° |
| 2026-05-06 16:09 | 50.51821 | 6.60936 | 35820 ft | 425 kts | 212° |
| 2026-05-06 16:10 | 50.46803 | 6.56072 | 35810 ft | 425 kts | 212° |
| 2026-05-06 16:10 | 50.41779 | 6.51213 | 35808 ft | 425 kts | 212° |
| 2026-05-06 16:11 | 50.36750 | 6.46365 | 35810 ft | 425 kts | 212° |
| 2026-05-06 16:11 | 50.31693 | 6.41503 | 35810 ft | 425 kts | 212° |
| 2026-05-06 16:12 | 50.26649 | 6.36665 | 35812 ft | 425 kts | 212° |
| 2026-05-06 16:12 | 50.21603 | 6.31838 | 35812 ft | 426 kts | 211° |
| 2026-05-06 16:13 | 50.16589 | 6.27048 | 35813 ft | 425 kts | 211° |
| 2026-05-06 16:13 | 50.11501 | 6.22193 | 35815 ft | 426 kts | 211° |
| 2026-05-06 16:14 | 50.06453 | 6.17392 | 35821 ft | 427 kts | 211° |
| 2026-05-06 16:14 | 50.01367 | 6.12570 | 35820 ft | 427 kts | 211° |
| 2026-05-06 16:15 | 49.96285 | 6.07767 | 35822 ft | 427 kts | 211° |
| 2026-05-06 16:15 | 49.91203 | 6.02973 | 35820 ft | 427 kts | 211° |
| 2026-05-06 16:16 | 49.86128 | 5.98203 | 35812 ft | 427 kts | 211° |
| 2026-05-06 16:16 | 49.81050 | 5.93342 | 35821 ft | 427 kts | 215° |
| 2026-05-06 16:17 | 49.76584 | 5.87359 | 35822 ft | 428 kts | 227° |
| 2026-05-06 16:17 | 49.73035 | 5.80016 | 35820 ft | 430 kts | 239° |
| 2026-05-06 16:18 | 49.70542 | 5.71607 | 35830 ft | 432 kts | 249° |
| 2026-05-06 16:18 | 49.68520 | 5.62857 | 35832 ft | 432 kts | 250° |
| 2026-05-06 16:19 | 49.66510 | 5.54175 | 35842 ft | 432 kts | 250° |
| 2026-05-06 16:19 | 49.64467 | 5.45437 | 35681 ft | 432 kts | 249° |
| 2026-05-06 16:20 | 49.63440 | 5.41071 | 35500 ft | 431 kts | 249° |
| 2026-05-06 16:20 | 49.62414 | 5.36712 | 35297 ft | 430 kts | 250° |
| 2026-05-06 16:20 | 49.61506 | 5.32521 | 34993 ft | 430 kts | 252° |
| 2026-05-06 16:20 | 49.60718 | 5.28096 | 34545 ft | 431 kts | 255° |
| 2026-05-06 16:21 | 49.60086 | 5.23538 | 33974 ft | 435 kts | 258° |
| 2026-05-06 16:21 | 49.59623 | 5.18900 | 33344 ft | 440 kts | 261° |
| 2026-05-06 16:21 | 49.59332 | 5.14246 | 32621 ft | 445 kts | 265° |
| 2026-05-06 16:21 | 49.59209 | 5.09468 | 31833 ft | 449 kts | 268° |
| 2026-05-06 16:22 | 49.59229 | 5.04598 | 31030 ft | 452 kts | 270° |
| 2026-05-06 16:22 | 49.59279 | 4.99784 | 30155 ft | 454 kts | 270° |
| 2026-05-06 16:22 | 49.59332 | 4.94942 | 29368 ft | 453 kts | 270° |
| 2026-05-06 16:22 | 49.59381 | 4.90065 | 28634 ft | 451 kts | 270° |
| 2026-05-06 16:23 | 49.59421 | 4.85344 | 28163 ft | 443 kts | 270° |
| 2026-05-06 16:23 | 49.59455 | 4.80657 | 27692 ft | 434 kts | 270° |
| 2026-05-06 16:23 | 49.59486 | 4.76027 | 27223 ft | 428 kts | 270° |
| 2026-05-06 16:23 | 49.59511 | 4.71443 | 26759 ft | 426 kts | 270° |
| 2026-05-06 16:24 | 49.59533 | 4.66922 | 26293 ft | 423 kts | 270° |
| 2026-05-06 16:24 | 49.59554 | 4.62430 | 25818 ft | 419 kts | 270° |
| 2026-05-06 16:24 | 49.59573 | 4.57963 | 25336 ft | 416 kts | 270° |
| 2026-05-06 16:24 | 49.59591 | 4.53521 | 24854 ft | 413 kts | 270° |
| 2026-05-06 16:25 | 49.59605 | 4.49120 | 24368 ft | 410 kts | 270° |
| 2026-05-06 16:25 | 49.59619 | 4.44737 | 23880 ft | 406 kts | 270° |
| 2026-05-06 16:25 | 49.59630 | 4.40408 | 23399 ft | 403 kts | 270° |
| 2026-05-06 16:25 | 49.59639 | 4.36129 | 22922 ft | 400 kts | 270° |
| 2026-05-06 16:26 | 49.59645 | 4.31891 | 22442 ft | 396 kts | 269° |
| 2026-05-06 16:26 | 49.59651 | 4.27625 | 21959 ft | 393 kts | 270° |
| 2026-05-06 16:26 | 49.59655 | 4.23473 | 21481 ft | 390 kts | 270° |
| 2026-05-06 16:26 | 49.59658 | 4.19305 | 21001 ft | 387 kts | 270° |
| 2026-05-06 16:27 | 49.59660 | 4.15161 | 20518 ft | 384 kts | 270° |
| 2026-05-06 16:27 | 49.59650 | 4.11119 | 20049 ft | 380 kts | 268° |
| 2026-05-06 16:27 | 49.59251 | 4.07133 | 19570 ft | 378 kts | 254° |
| 2026-05-06 16:27 | 49.58269 | 4.03421 | 19118 ft | 374 kts | 241° |
| 2026-05-06 16:28 | 49.56898 | 4.00013 | 18659 ft | 372 kts | 237° |
| 2026-05-06 16:28 | 49.55503 | 3.96748 | 18204 ft | 369 kts | 237° |
| 2026-05-06 16:28 | 49.54096 | 3.93468 | 17747 ft | 367 kts | 237° |
| 2026-05-06 16:28 | 49.52693 | 3.90174 | 17281 ft | 365 kts | 237° |
| 2026-05-06 16:29 | 49.51323 | 3.86945 | 16819 ft | 364 kts | 238° |
| 2026-05-06 16:29 | 49.49951 | 3.83703 | 16351 ft | 362 kts | 238° |
| 2026-05-06 16:29 | 49.48590 | 3.80418 | 15874 ft | 360 kts | 241° |
| 2026-05-06 16:29 | 49.47491 | 3.77006 | 15408 ft | 358 kts | 249° |
| 2026-05-06 16:30 | 49.46696 | 3.73401 | 14939 ft | 356 kts | 255° |
| 2026-05-06 16:30 | 49.46273 | 3.70977 | 14632 ft | 355 kts | 257° |
| 2026-05-06 16:30 | 49.45461 | 3.66054 | 13994 ft | 354 kts | 257° |
| 2026-05-06 16:30 | 49.44862 | 3.62432 | 13528 ft | 352 kts | 257° |
| 2026-05-06 16:31 | 49.44250 | 3.58784 | 13080 ft | 349 kts | 257° |
| 2026-05-06 16:31 | 49.43667 | 3.55346 | 12915 ft | 323 kts | 257° |
| 2026-05-06 16:31 | 49.43117 | 3.52123 | 12767 ft | 299 kts | 257° |
| 2026-05-06 16:31 | 49.42607 | 3.49132 | 12630 ft | 288 kts | 257° |
| 2026-05-06 16:32 | 49.41961 | 3.46258 | 12467 ft | 286 kts | 241° |
| 2026-05-06 16:32 | 49.40642 | 3.43969 | 12200 ft | 289 kts | 217° |
| 2026-05-06 16:32 | 49.38926 | 3.42408 | 11853 ft | 289 kts | 210° |
| 2026-05-06 16:32 | 49.37148 | 3.40933 | 11492 ft | 289 kts | 210° |
| 2026-05-06 16:33 | 49.35383 | 3.39455 | 11134 ft | 289 kts | 211° |
| 2026-05-06 16:33 | 49.33614 | 3.37947 | 10778 ft | 289 kts | 211° |
| 2026-05-06 16:33 | 49.31891 | 3.36463 | 10427 ft | 288 kts | 211° |
| 2026-05-06 16:34 | 49.28413 | 3.33424 | 9712 ft | 286 kts | 213° |
| 2026-05-06 16:34 | 49.26839 | 3.31708 | 9368 ft | 284 kts | 220° |
| 2026-05-06 16:34 | 49.25430 | 3.29806 | 9078 ft | 281 kts | 224° |
| 2026-05-06 16:34 | 49.23999 | 3.27767 | 8752 ft | 280 kts | 225° |
| 2026-05-06 16:35 | 49.22598 | 3.25758 | 8429 ft | 278 kts | 224° |
| 2026-05-06 16:35 | 49.21190 | 3.23744 | 8099 ft | 277 kts | 224° |
| 2026-05-06 16:35 | 49.19766 | 3.21715 | 7763 ft | 276 kts | 224° |
| 2026-05-06 16:35 | 49.18368 | 3.19729 | 7436 ft | 274 kts | 224° |
| 2026-05-06 16:36 | 49.16988 | 3.17769 | 7106 ft | 273 kts | 225° |
| 2026-05-06 16:36 | 49.15601 | 3.15803 | 6779 ft | 271 kts | 224° |
| 2026-05-06 16:36 | 49.14219 | 3.13851 | 6452 ft | 271 kts | 224° |
| 2026-05-06 16:36 | 49.12830 | 3.11893 | 6121 ft | 269 kts | 225° |
| 2026-05-06 16:37 | 49.11466 | 3.09962 | 5802 ft | 268 kts | 224° |
| 2026-05-06 16:37 | 49.10109 | 3.08046 | 5483 ft | 267 kts | 225° |
| 2026-05-06 16:37 | 49.08750 | 3.06134 | 5164 ft | 266 kts | 225° |
| 2026-05-06 16:37 | 49.07391 | 3.04217 | 4840 ft | 264 kts | 225° |
| 2026-05-06 16:38 | 49.06073 | 3.02362 | 4540 ft | 262 kts | 225° |
| 2026-05-06 16:38 | 49.04710 | 3.00448 | 4222 ft | 261 kts | 225° |
| 2026-05-06 16:38 | 49.03404 | 2.98612 | 3994 ft | 254 kts | 225° |
| 2026-05-06 16:38 | 49.02150 | 2.96814 | 3969 ft | 239 kts | 233° |
| 2026-05-06 16:39 | 49.01383 | 2.94728 | 3967 ft | 218 kts | 257° |
| 2026-05-06 16:39 | 49.01100 | 2.92525 | 3972 ft | 208 kts | 270° |
| 2026-05-06 16:39 | 49.01034 | 2.90375 | 3961 ft | 194 kts | 272° |
| 2026-05-06 16:39 | 49.00992 | 2.88396 | 3925 ft | 181 kts | 272° |
| 2026-05-06 16:40 | 49.00928 | 2.86553 | 3674 ft | 170 kts | 271° |
| 2026-05-06 16:40 | 49.00847 | 2.84800 | 3437 ft | 160 kts | 271° |
| 2026-05-06 16:40 | 49.00760 | 2.83187 | 3249 ft | 153 kts | 271° |
| 2026-05-06 16:40 | 49.00671 | 2.81626 | 3050 ft | 141 kts | 271° |
| 2026-05-06 16:41 | 49.00588 | 2.80187 | 2862 ft | 136 kts | 272° |
| 2026-05-06 16:41 | 49.00507 | 2.78756 | 2691 ft | 135 kts | 272° |
| 2026-05-06 16:41 | 49.00426 | 2.77322 | 2518 ft | 134 kts | 272° |
| 2026-05-06 16:41 | 49.00345 | 2.75908 | 2343 ft | 134 kts | 271° |
| 2026-05-06 16:42 | 49.00265 | 2.74506 | 2166 ft | 133 kts | 271° |
| 2026-05-06 16:42 | 49.00188 | 2.73115 | 1979 ft | 132 kts | 271° |
| 2026-05-06 16:42 | 49.00111 | 2.71723 | 1800 ft | 132 kts | 271° |
| 2026-05-06 16:42 | 49.00032 | 2.70321 | 1618 ft | 131 kts | 271° |
| 2026-05-06 16:43 | 48.99956 | 2.68939 | 1441 ft | 131 kts | 270° |
| 2026-05-06 16:43 | 48.99881 | 2.67574 | 1266 ft | 130 kts | 270° |
| 2026-05-06 16:43 | 48.99806 | 2.66199 | 1092 ft | 130 kts | 270° |
| 2026-05-06 16:43 | 48.99733 | 2.64825 | 923 ft | 130 kts | 269° |
| 2026-05-06 16:44 | 48.99660 | 2.63477 | 752 ft | 129 kts | 269° |
| 2026-05-06 16:44 | 48.99587 | 2.62100 | 584 ft | 130 kts | 269° |
| 2026-05-06 16:44 | 48.99513 | 2.60738 | 408 ft | 128 kts | 269° |
| 2026-05-06 16:44 | 48.99455 | 2.59451 | 320 ft | 93 kts | 267° |
| 2026-05-06 16:45 | 48.99411 | 2.58736 | 322 ft | 62 kts | 264° |
| 2026-05-06 16:45 | 48.99423 | 2.58129 | 322 ft | 51 kts | 284° |
| 2026-05-06 16:45 | 48.99479 | 2.57835 | 324 ft | 20 kts | 287° |
| 2026-05-06 16:45 | 48.99516 | 2.57626 | 324 ft | 19 kts | 273° |
| 2026-05-06 16:46 | 48.99506 | 2.57415 | 324 ft | 19 kts | 265° |
| 2026-05-06 16:46 | 48.99502 | 2.57210 | 326 ft | 18 kts | 269° |
| 2026-05-06 16:46 | 48.99490 | 2.57014 | 327 ft | 18 kts | 265° |
| 2026-05-06 16:46 | 48.99479 | 2.56802 | 327 ft | 21 kts | 265° |
| 2026-05-06 16:47 | 48.99540 | 2.56627 | 327 ft | 20 kts | 350° |
| 2026-05-06 16:47 | 48.99688 | 2.56616 | 327 ft | 21 kts | 356° |
| 2026-05-06 16:47 | 48.99834 | 2.56597 | 330 ft | 21 kts | 355° |
| 2026-05-06 16:47 | 48.99912 | 2.56445 | 330 ft | 21 kts | 262° |
| 2026-05-06 16:48 | 48.99900 | 2.56215 | 330 ft | 22 kts | 265° |
| 2026-05-06 16:48 | 48.99890 | 2.55978 | 331 ft | 23 kts | 272° |
| 2026-05-06 16:48 | 48.99929 | 2.55740 | 332 ft | 23 kts | 297° |
| 2026-05-06 16:48 | 49.00068 | 2.55640 | 333 ft | 22 kts | 345° |
| 2026-05-06 16:49 | 49.00220 | 2.55573 | 334 ft | 22 kts | 344° |
| 2026-05-06 16:49 | 49.00373 | 2.55504 | 337 ft | 22 kts | 343° |
| 2026-05-06 16:49 | 49.00525 | 2.55436 | 337 ft | 23 kts | 345° |
| 2026-05-06 16:49 | 49.00675 | 2.55379 | 340 ft | 21 kts | 6° |
| 2026-05-06 16:50 | 49.00734 | 2.55572 | 340 ft | 22 kts | 85° |
| 2026-05-06 16:50 | 49.00756 | 2.55818 | 340 ft | 23 kts | 81° |
| 2026-05-06 16:50 | 49.00780 | 2.56067 | 339 ft | 23 kts | 84° |
| 2026-05-06 16:50 | 49.00795 | 2.56232 | 339 ft | 23 kts | 82° |
| 2026-05-06 16:51 | 49.00824 | 2.56559 | 339 ft | 23 kts | 86° |
| 2026-05-06 16:51 | 49.00838 | 2.56812 | 337 ft | 24 kts | 85° |
| 2026-05-06 16:51 | 49.00852 | 2.57066 | 337 ft | 23 kts | 85° |
| 2026-05-06 16:51 | 49.00865 | 2.57313 | 337 ft | 23 kts | 85° |
| 2026-05-06 16:52 | 49.00870 | 2.57512 | 337 ft | 16 kts | 109° |
| 2026-05-06 16:52 | 49.00789 | 2.57608 | 336 ft | 15 kts | 140° |
| 2026-05-06 16:52 | 49.00705 | 2.57671 | 334 ft | 11 kts | 145° |
| 2026-05-06 16:52 | 49.00674 | 2.57744 | 334 ft | 3 kts | 122° |
| 2026-05-06 16:53 | 49.00666 | 2.57762 | 333 ft | 0 kts | 122° |